WMT9020 LROP-LPPR
Flight info
| Callsign | WMT9020 |
|---|---|
| Flight time | N/A |
| Altitude | 32000 |
| Route | POLUN DCT VIKBI DCT ELDET DCT LELTI DCT ANASA DCT ROTAR/N0457F330 DCT RONOP/N0456F340 DCT GIGUS DCT BALSI DCT GIPNO DCT RUSIT/N0454F310 DCT ESIDA DCT LERGA DCT MINSO/N0456F330 DCT NARAK DCT AGN DCT PIPOR L866 PPN N976 ZMR L155 ADORO/N0453F340 DCT ELGIX |
| Aircraft | A321/M-SDE3FGHIRWY/LB1 |
Departure
| Time | 2026-05-05 14:56 |
|---|---|
| Airport | Bucharest Henri Coandă International Airport (LROP) |
Arrival
| Time | N/A |
|---|---|
| Airport | Francisco de Sá Carneiro Airport (LPPR) |
| Time | Latitude | Longitude | Altitude | Speed | Heading |
|---|---|---|---|---|---|
| 2026-05-05 14:38 | 44.57145 | 26.08112 | 322 ft | 0 kts | 174° |
| 2026-05-05 14:42 | 44.57149 | 26.08112 | 322 ft | 3 kts | 174° |
| 2026-05-05 14:42 | 44.57173 | 26.08108 | 321 ft | 3 kts | 174° |
| 2026-05-05 14:42 | 44.57195 | 26.08099 | 321 ft | 4 kts | 126° |
| 2026-05-05 14:42 | 44.57202 | 26.08068 | 322 ft | 4 kts | 85° |
| 2026-05-05 14:43 | 44.57201 | 26.08059 | 321 ft | 0 kts | 84° |
| 2026-05-05 14:48 | 44.57202 | 26.08067 | 321 ft | 5 kts | 84° |
| 2026-05-05 14:48 | 44.57210 | 26.08180 | 322 ft | 14 kts | 84° |
| 2026-05-05 14:48 | 44.57220 | 26.08317 | 322 ft | 14 kts | 84° |
| 2026-05-05 14:49 | 44.57231 | 26.08453 | 323 ft | 11 kts | 81° |
| 2026-05-05 14:49 | 44.57285 | 26.08498 | 322 ft | 10 kts | 357° |
| 2026-05-05 14:49 | 44.57365 | 26.08486 | 322 ft | 12 kts | 354° |
| 2026-05-05 14:49 | 44.57449 | 26.08475 | 322 ft | 12 kts | 357° |
| 2026-05-05 14:50 | 44.57497 | 26.08556 | 322 ft | 14 kts | 82° |
| 2026-05-05 14:50 | 44.57509 | 26.08727 | 322 ft | 21 kts | 84° |
| 2026-05-05 14:50 | 44.57526 | 26.08955 | 321 ft | 26 kts | 84° |
| 2026-05-05 14:50 | 44.57546 | 26.09230 | 322 ft | 30 kts | 83° |
| 2026-05-05 14:51 | 44.57569 | 26.09517 | 322 ft | 30 kts | 84° |
| 2026-05-05 14:51 | 44.57591 | 26.09811 | 322 ft | 30 kts | 84° |
| 2026-05-05 14:51 | 44.57612 | 26.10099 | 320 ft | 29 kts | 84° |
| 2026-05-05 14:51 | 44.57635 | 26.10404 | 322 ft | 35 kts | 84° |
| 2026-05-05 14:52 | 44.57662 | 26.10764 | 322 ft | 38 kts | 84° |
| 2026-05-05 14:52 | 44.57690 | 26.11125 | 322 ft | 36 kts | 84° |
| 2026-05-05 14:52 | 44.57715 | 26.11486 | 322 ft | 39 kts | 84° |
| 2026-05-05 14:52 | 44.57744 | 26.11856 | 322 ft | 37 kts | 84° |
| 2026-05-05 14:53 | 44.57771 | 26.12211 | 322 ft | 36 kts | 84° |
| 2026-05-05 14:53 | 44.57790 | 26.12487 | 322 ft | 24 kts | 84° |
| 2026-05-05 14:53 | 44.57808 | 26.12696 | 322 ft | 19 kts | 83° |
| 2026-05-05 14:53 | 44.57824 | 26.12839 | 322 ft | 9 kts | 67° |
| 2026-05-05 14:54 | 44.57874 | 26.12865 | 321 ft | 8 kts | 342° |
| 2026-05-05 14:54 | 44.57929 | 26.12815 | 322 ft | 12 kts | 326° |
| 2026-05-05 14:54 | 44.57984 | 26.12759 | 322 ft | 2 kts | 304° |
| 2026-05-05 14:54 | 44.57985 | 26.12716 | 322 ft | 0 kts | 266° |
| 2026-05-05 14:55 | 44.57982 | 26.12665 | 323 ft | 23 kts | 266° |
| 2026-05-05 14:55 | 44.57938 | 26.12106 | 323 ft | 90 kts | 264° |
| 2026-05-05 14:56 | 44.57852 | 26.10965 | 322 ft | 144 kts | 264° |
| 2026-05-05 14:56 | 44.57734 | 26.09364 | 442 ft | 177 kts | 264° |
| 2026-05-05 14:56 | 44.57620 | 26.07663 | 1110 ft | 178 kts | 263° |
| 2026-05-05 14:56 | 44.57490 | 26.05934 | 1782 ft | 179 kts | 262° |
| 2026-05-05 14:57 | 44.57348 | 26.04181 | 2272 ft | 186 kts | 262° |
| 2026-05-05 14:57 | 44.57193 | 26.02291 | 2428 ft | 205 kts | 262° |
| 2026-05-05 14:57 | 44.57029 | 26.00208 | 2607 ft | 224 kts | 263° |
| 2026-05-05 14:57 | 44.56852 | 25.97939 | 2818 ft | 244 kts | 263° |
| 2026-05-05 14:58 | 44.56662 | 25.95475 | 3191 ft | 260 kts | 263° |
| 2026-05-05 14:58 | 44.56470 | 25.92929 | 3823 ft | 264 kts | 264° |
| 2026-05-05 14:58 | 44.56292 | 25.90349 | 4455 ft | 267 kts | 265° |
| 2026-05-05 14:58 | 44.56133 | 25.87739 | 5070 ft | 270 kts | 266° |
| 2026-05-05 14:59 | 44.55977 | 25.85097 | 5691 ft | 274 kts | 266° |
| 2026-05-05 14:59 | 44.55821 | 25.82422 | 6301 ft | 277 kts | 267° |
| 2026-05-05 14:59 | 44.55663 | 25.79716 | 6888 ft | 280 kts | 267° |
| 2026-05-05 14:59 | 44.55500 | 25.76982 | 7482 ft | 283 kts | 268° |
| 2026-05-05 15:00 | 44.55335 | 25.74223 | 8086 ft | 285 kts | 268° |
| 2026-05-05 15:00 | 44.55223 | 25.72387 | 8488 ft | 286 kts | 268° |
| 2026-05-05 15:00 | 44.54989 | 25.68641 | 9302 ft | 290 kts | 268° |
| 2026-05-05 15:00 | 44.54812 | 25.65816 | 9894 ft | 292 kts | 268° |
| 2026-05-05 15:01 | 44.54631 | 25.62938 | 10225 ft | 305 kts | 268° |
| 2026-05-05 15:01 | 44.54443 | 25.59887 | 10361 ft | 323 kts | 268° |
| 2026-05-05 15:01 | 44.54244 | 25.56651 | 10484 ft | 342 kts | 268° |
| 2026-05-05 15:01 | 44.54033 | 25.53250 | 10601 ft | 359 kts | 268° |
| 2026-05-05 15:02 | 44.53992 | 25.52600 | 10630 ft | 361 kts | 268° |
| 2026-05-05 15:02 | 44.53831 | 25.50381 | 11000 ft | 362 kts | 266° |
| 2026-05-05 15:02 | 44.53586 | 25.46824 | 11315 ft | 371 kts | 267° |
| 2026-05-05 15:02 | 44.53355 | 25.43205 | 11819 ft | 374 kts | 268° |
| 2026-05-05 15:03 | 44.53128 | 25.39558 | 12348 ft | 378 kts | 268° |
| 2026-05-05 15:03 | 44.52897 | 25.35869 | 12888 ft | 382 kts | 268° |
| 2026-05-05 15:03 | 44.52662 | 25.32147 | 13424 ft | 385 kts | 268° |
| 2026-05-05 15:03 | 44.52421 | 25.28399 | 13930 ft | 388 kts | 268° |
| 2026-05-05 15:04 | 44.52174 | 25.24610 | 14393 ft | 392 kts | 267° |
| 2026-05-05 15:04 | 44.51919 | 25.20796 | 14887 ft | 395 kts | 267° |
| 2026-05-05 15:04 | 44.51662 | 25.16954 | 15360 ft | 397 kts | 267° |
| 2026-05-05 15:04 | 44.51403 | 25.13080 | 15846 ft | 400 kts | 267° |
| 2026-05-05 15:05 | 44.50878 | 25.05260 | 16810 ft | 406 kts | 267° |
| 2026-05-05 15:05 | 44.50610 | 25.01309 | 17285 ft | 409 kts | 267° |
| 2026-05-05 15:05 | 44.50340 | 24.97328 | 17759 ft | 412 kts | 266° |
| 2026-05-05 15:06 | 44.50066 | 24.93321 | 18231 ft | 415 kts | 266° |
| 2026-05-05 15:06 | 44.49787 | 24.89284 | 18649 ft | 418 kts | 266° |
| 2026-05-05 15:06 | 44.49506 | 24.85230 | 19068 ft | 420 kts | 266° |
| 2026-05-05 15:06 | 44.49219 | 24.81149 | 19484 ft | 421 kts | 266° |
| 2026-05-05 15:07 | 44.48933 | 24.77058 | 19894 ft | 423 kts | 266° |
| 2026-05-05 15:07 | 44.48648 | 24.72951 | 20301 ft | 425 kts | 266° |
| 2026-05-05 15:07 | 44.48358 | 24.68820 | 20702 ft | 427 kts | 266° |
| 2026-05-05 15:07 | 44.48064 | 24.64678 | 21098 ft | 428 kts | 266° |
| 2026-05-05 15:08 | 44.47766 | 24.60513 | 21483 ft | 430 kts | 266° |
| 2026-05-05 15:08 | 44.47462 | 24.56336 | 21864 ft | 432 kts | 266° |
| 2026-05-05 15:08 | 44.47152 | 24.52144 | 22228 ft | 434 kts | 266° |
| 2026-05-05 15:08 | 44.46845 | 24.47933 | 22591 ft | 436 kts | 266° |
| 2026-05-05 15:09 | 44.46537 | 24.43705 | 22951 ft | 438 kts | 266° |
| 2026-05-05 15:09 | 44.46229 | 24.39463 | 23303 ft | 439 kts | 266° |
| 2026-05-05 15:09 | 44.45920 | 24.35197 | 23627 ft | 441 kts | 266° |
| 2026-05-05 15:09 | 44.45607 | 24.30921 | 23926 ft | 443 kts | 266° |
| 2026-05-05 15:10 | 44.45288 | 24.26625 | 24230 ft | 444 kts | 266° |
| 2026-05-05 15:10 | 44.44964 | 24.22315 | 24528 ft | 446 kts | 266° |
| 2026-05-05 15:10 | 44.44635 | 24.17984 | 24824 ft | 447 kts | 266° |
| 2026-05-05 15:10 | 44.44306 | 24.13646 | 25116 ft | 449 kts | 266° |
| 2026-05-05 15:11 | 44.43977 | 24.09297 | 25404 ft | 450 kts | 266° |
| 2026-05-05 15:11 | 44.43645 | 24.04927 | 25683 ft | 452 kts | 267° |
| 2026-05-05 15:11 | 44.43313 | 24.00554 | 25952 ft | 453 kts | 267° |
| 2026-05-05 15:11 | 44.42976 | 23.96165 | 26230 ft | 454 kts | 267° |
| 2026-05-05 15:12 | 44.42634 | 23.91766 | 26502 ft | 456 kts | 266° |
| 2026-05-05 15:12 | 44.42286 | 23.87359 | 26765 ft | 457 kts | 266° |
| 2026-05-05 15:12 | 44.41934 | 23.82924 | 27028 ft | 458 kts | 266° |
| 2026-05-05 15:12 | 44.41587 | 23.78542 | 27289 ft | 460 kts | 266° |
| 2026-05-05 15:13 | 44.41231 | 23.74030 | 27563 ft | 461 kts | 266° |
| 2026-05-05 15:13 | 44.40877 | 23.69567 | 27867 ft | 461 kts | 266° |
| 2026-05-05 15:13 | 44.40525 | 23.65177 | 28249 ft | 460 kts | 266° |
| 2026-05-05 15:13 | 44.40162 | 23.60680 | 28652 ft | 458 kts | 266° |
| 2026-05-05 15:14 | 44.39808 | 23.56318 | 29037 ft | 457 kts | 266° |
| 2026-05-05 15:14 | 44.39449 | 23.51913 | 29421 ft | 456 kts | 266° |
| 2026-05-05 15:14 | 44.39091 | 23.47514 | 29793 ft | 454 kts | 266° |
| 2026-05-05 15:14 | 44.38731 | 23.43129 | 30138 ft | 453 kts | 266° |
| 2026-05-05 15:15 | 44.38493 | 23.40234 | 30349 ft | 452 kts | 266° |
| 2026-05-05 15:15 | 44.38129 | 23.35814 | 30659 ft | 451 kts | 266° |
| 2026-05-05 15:15 | 44.37768 | 23.31468 | 30934 ft | 450 kts | 266° |
| 2026-05-05 15:15 | 44.37409 | 23.27124 | 31238 ft | 449 kts | 266° |
| 2026-05-05 15:16 | 44.37050 | 23.22790 | 31531 ft | 448 kts | 266° |
| 2026-05-05 15:16 | 44.36691 | 23.18474 | 31816 ft | 447 kts | 266° |
| 2026-05-05 15:16 | 44.36328 | 23.14156 | 31957 ft | 447 kts | 266° |
| 2026-05-05 15:17 | 44.35594 | 23.05542 | 31980 ft | 445 kts | 266° |
| 2026-05-05 15:17 | 44.34855 | 22.96955 | 31979 ft | 445 kts | 266° |
| 2026-05-05 15:18 | 44.34107 | 22.88377 | 31980 ft | 445 kts | 266° |
| 2026-05-05 15:18 | 44.33356 | 22.79865 | 31975 ft | 444 kts | 266° |
| 2026-05-05 15:19 | 44.32600 | 22.71284 | 31974 ft | 444 kts | 266° |